Terminal Aerodrome Forecast
Issued by NWS Charleston, WV

Home | Current Version | Previous Version | Text Only | Print | Product List | Glossary On
Versions: 1 2 3 4 5 6 7 8 9 10 11 12 13 14 15 16 17 18 19 20
000
FTUS41 KRLX 181700
TAFPKB
TAF
KPKB 181723Z 1818/1918 26006KT P6SM SCT250
     FM182300 VRB03KT P6SM SCT050
     FM190800 00000KT P6SM SKC
     FM191100 06004KT P6SM FEW050
     FM191300 04005KT P6SM SKC=

USA.gov is the U.S. government's official web portal to all federal, state and local government web resources and services.